Time;durP1;ratioP1;P1;durP2;ratioP2;P2;SDS_P1;SDS_P2;PMS_P1;PMS_P2;Temp;Humidity;BMP_temperature;BMP_pressure;BME280_temperature;BME280_humidity;BME280_pressure;Samples;Min_cycle;Max_cycle;Signal;HPM_P1;HPM_P2
2023/08/23 00:01:11;;;;;;;6.22;4.15;;;;;;;;;;5000738;28;20480;-89
2023/08/23 00:03:36;;;;;;;6.38;4.50;;;;;;;;;;5034185;28;20030;-89
2023/08/23 00:06:02;;;;;;;4.95;4.22;;;;;;;;;;5033404;28;20033;-88
2023/08/23 00:08:27;;;;;;;5.30;4.65;;;;;;;;;;5033469;28;20030;-88
2023/08/23 00:10:56;;;;;;;8.52;4.75;;;;;;;;;;5034031;28;20450;-88
2023/08/23 00:13:22;;;;;;;9.07;4.80;;;;;;;;;;5066339;28;20496;-90
2023/08/23 00:15:47;;;;;;;8.55;5.40;;;;;;;;;;5016810;28;20086;-88
2023/08/23 00:18:13;;;;;;;9.88;6.60;;;;;;;;;;5033149;28;20040;-88
2023/08/23 00:20:38;;;;;;;10.27;6.55;;;;;;;;;;5033573;28;20026;-89
2023/08/23 00:23:04;;;;;;;9.65;6.80;;;;;;;;;;5016833;28;20033;-87
2023/08/23 00:25:29;;;;;;;10.55;7.10;;;;;;;;;;5034546;28;20041;-88
2023/08/23 00:27:55;;;;;;;8.88;6.95;;;;;;;;;;5033800;28;20044;-89
2023/08/23 00:30:20;;;;;;;10.23;6.05;;;;;;;;;;5015857;28;20465;-89
2023/08/23 00:32:46;;;;;;;9.48;6.75;;;;;;;;;;5016977;28;20037;-88
2023/08/23 00:35:11;;;;;;;7.50;6.28;;;;;;;;;;5033787;28;20032;-88
2023/08/23 00:37:37;;;;;;;12.38;6.03;;;;;;;;;;5016701;28;20030;-90
2023/08/23 00:40:03;;;;;;;7.32;5.32;;;;;;;;;;5032354;28;20101;-89
2023/08/23 00:42:28;;;;;;;7.22;4.95;;;;;;;;;;5017476;28;20037;-89
2023/08/23 00:44:54;;;;;;;5.57;4.15;;;;;;;;;;5049846;28;20024;-88
2023/08/23 00:47:20;;;;;;;5.40;3.85;;;;;;;;;;5034110;28;20029;-89
2023/08/23 00:49:46;;;;;;;5.15;4.03;;;;;;;;;;5000423;28;20048;-89
2023/08/23 00:52:12;;;;;;;6.88;4.40;;;;;;;;;;5032768;28;20119;-88
2023/08/23 00:54:37;;;;;;;4.32;3.40;;;;;;;;;;5033414;28;20481;-89
2023/08/23 00:57:03;;;;;;;6.43;3.45;;;;;;;;;;5032878;28;20485;-88
2023/08/23 00:59:29;;;;;;;7.97;3.78;;;;;;;;;;5032578;28;20043;-88
2023/08/23 01:01:55;;;;;;;7.20;3.78;;;;;;;;;;5033384;28;20323;-88
2023/08/23 01:04:20;;;;;;;5.22;3.95;;;;;;;;;;5016755;28;20451;-89
2023/08/23 01:06:52;;;;;;;7.32;4.43;;;;;;;;;;5032725;28;20029;-88
2023/08/23 01:09:27;;;;;;;7.38;4.50;;;;;;;;;;5033354;28;20041;-89
2023/08/23 01:12:03;;;;;;;9.15;4.97;;;;;;;;;;5033616;28;20033;-88
2023/08/23 01:14:38;;;;;;;9.35;5.40;;;;;;;;;;5015469;28;20041;-88
2023/08/23 01:17:04;;;;;;;8.98;5.03;;;;;;;;;;5032109;28;20068;-88
2023/08/23 01:19:41;;;;;;;9.20;5.25;;;;;;;;;;5032370;28;20179;-88
2023/08/23 01:22:08;;;;;;;12.48;5.10;;;;;;;;;;5033485;28;20057;-88
2023/08/23 01:24:33;;;;;;;15.15;6.40;;;;;;;;;;5032109;28;20036;-88
2023/08/23 01:26:59;;;;;;;13.18;5.82;;;;;;;;;;5031690;28;20042;-89
2023/08/23 01:29:24;;;;;;;14.63;6.10;;;;;;;;;;4998964;28;20084;-89
2023/08/23 01:31:50;;;;;;;10.02;5.40;;;;;;;;;;5033846;28;20033;-89
2023/08/23 01:34:16;;;;;;;13.63;6.00;;;;;;;;;;5031812;28;20030;-89
2023/08/23 01:36:41;;;;;;;10.82;5.95;;;;;;;;;;5015883;28;20106;-89
2023/08/23 01:39:07;;;;;;;13.23;5.80;;;;;;;;;;5015229;28;20571;-88
2023/08/23 01:41:33;;;;;;;11.65;6.75;;;;;;;;;;5016036;28;20033;-88
2023/08/23 01:43:58;;;;;;;16.05;6.38;;;;;;;;;;5032011;28;20033;-88
2023/08/23 01:46:24;;;;;;;12.15;6.93;;;;;;;;;;5015844;28;20616;-88
2023/08/23 01:48:50;;;;;;;15.50;6.43;;;;;;;;;;5015235;28;20061;-88
2023/08/23 01:51:16;;;;;;;15.55;6.25;;;;;;;;;;4999226;28;20485;-89
2023/08/23 01:53:41;;;;;;;13.23;6.18;;;;;;;;;;5031029;28;20033;-88
2023/08/23 01:56:07;;;;;;;13.48;6.03;;;;;;;;;;5031234;28;20060;-88
2023/08/23 01:58:32;;;;;;;11.43;7.22;;;;;;;;;;5013857;28;20033;-88
2023/08/23 02:00:58;;;;;;;9.98;5.55;;;;;;;;;;5032410;28;20168;-88
2023/08/23 02:03:23;;;;;;;14.13;5.95;;;;;;;;;;5016917;28;20021;-88
2023/08/23 02:05:49;;;;;;;10.73;5.75;;;;;;;;;;5035010;28;20037;-88
2023/08/23 02:08:16;;;;;;;9.20;5.05;;;;;;;;;;5019670;28;20033;-88
2023/08/23 02:10:42;;;;;;;6.22;4.90;;;;;;;;;;5035240;28;20044;-88
2023/08/23 02:13:07;;;;;;;7.90;5.20;;;;;;;;;;5035033;28;20030;-88
2023/08/23 02:15:33;;;;;;;7.57;5.47;;;;;;;;;;5035092;28;20045;-88
2023/08/23 02:17:59;;;;;;;8.23;5.15;;;;;;;;;;5036081;28;20029;-88
2023/08/23 02:20:24;;;;;;;7.30;4.95;;;;;;;;;;5035050;28;20151;-88
2023/08/23 02:22:50;;;;;;;7.18;4.75;;;;;;;;;;5034918;28;20041;-88
2023/08/23 02:25:15;;;;;;;7.28;4.55;;;;;;;;;;5018741;28;20037;-88
2023/08/23 02:27:41;;;;;;;8.35;4.07;;;;;;;;;;5018634;28;20381;-88
2023/08/23 02:30:07;;;;;;;5.30;4.15;;;;;;;;;;5001648;28;20041;-88
2023/08/23 02:32:33;;;;;;;6.65;4.10;;;;;;;;;;5035917;28;20021;-88
2023/08/23 02:34:58;;;;;;;9.60;4.53;;;;;;;;;;5035344;28;20041;-88
2023/08/23 02:37:24;;;;;;;6.90;4.10;;;;;;;;;;5017957;28;20477;-88
2023/08/23 02:39:49;;;;;;;6.82;4.40;;;;;;;;;;5034711;28;20045;-88
2023/08/23 02:42:14;;;;;;;7.28;3.75;;;;;;;;;;5034779;28;20035;-88
2023/08/23 02:44:40;;;;;;;8.63;5.10;;;;;;;;;;5017843;28;20124;-88
2023/08/23 02:47:05;;;;;;;6.65;4.20;;;;;;;;;;5033854;28;20124;-88
2023/08/23 02:49:31;;;;;;;6.88;3.60;;;;;;;;;;5017635;28;20120;-88
2023/08/23 02:51:56;;;;;;;3.60;2.58;;;;;;;;;;5018087;28;20032;-88
2023/08/23 02:54:22;;;;;;;6.65;3.30;;;;;;;;;;5034141;28;20128;-89
2023/08/23 02:56:49;;;;;;;7.13;3.30;;;;;;;;;;5034437;28;20489;-88
2023/08/23 02:59:14;;;;;;;5.05;3.50;;;;;;;;;;5036090;28;20041;-88
2023/08/23 03:01:40;;;;;;;4.82;3.00;;;;;;;;;;5034744;28;20029;-88
2023/08/23 03:04:05;;;;;;;5.35;3.30;;;;;;;;;;5034251;28;20033;-88
2023/08/23 03:06:31;;;;;;;6.72;3.60;;;;;;;;;;5034785;28;20378;-88
2023/08/23 03:08:56;;;;;;;6.70;3.70;;;;;;;;;;5034543;28;20485;-89
2023/08/23 03:11:22;;;;;;;6.28;3.50;;;;;;;;;;5002308;28;20477;-89
2023/08/23 03:13:47;;;;;;;5.43;3.45;;;;;;;;;;5032626;28;20404;-88
2023/08/23 03:16:13;;;;;;;4.53;3.45;;;;;;;;;;5001382;28;20071;-88
2023/08/23 03:18:39;;;;;;;4.80;3.10;;;;;;;;;;5050212;28;20041;-88
2023/08/23 03:21:04;;;;;;;3.75;3.20;;;;;;;;;;5016916;28;20075;-88
2023/08/23 03:23:30;;;;;;;7.40;3.17;;;;;;;;;;5033548;28;20039;-88
2023/08/23 03:25:56;;;;;;;4.53;3.28;;;;;;;;;;5033644;28;20017;-87
2023/08/23 03:28:21;;;;;;;3.53;2.30;;;;;;;;;;5033749;28;20137;-88
2023/08/23 03:30:47;;;;;;;5.28;2.85;;;;;;;;;;5033783;28;20083;-88
2023/08/23 03:33:13;;;;;;;7.20;3.28;;;;;;;;;;5034096;28;20037;-87
2023/08/23 03:35:39;;;;;;;4.38;3.30;;;;;;;;;;5033829;28;20033;-87
2023/08/23 03:38:05;;;;;;;6.38;2.83;;;;;;;;;;5000700;28;20033;-89
2023/08/23 03:40:34;;;;;;;4.97;2.80;;;;;;;;;;5033843;28;20025;-87
2023/08/23 03:42:59;;;;;;;5.40;2.85;;;;;;;;;;5033439;28;20496;-87
2023/08/23 03:45:25;;;;;;;5.05;2.75;;;;;;;;;;5034654;28;20064;-88
2023/08/23 03:47:50;;;;;;;3.65;2.88;;;;;;;;;;5032919;28;20515;-87
2023/08/23 03:50:16;;;;;;;6.13;3.47;;;;;;;;;;5033392;28;20084;-88
2023/08/23 03:52:41;;;;;;;4.53;3.10;;;;;;;;;;5032843;28;20033;-88
2023/08/23 03:55:07;;;;;;;4.28;2.92;;;;;;;;;;5034040;28;20053;-88
2023/08/23 03:57:33;;;;;;;3.10;2.40;;;;;;;;;;5033754;28;20034;-89
2023/08/23 03:59:59;;;;;;;4.80;2.83;;;;;;;;;;5035192;28;20029;-89
2023/08/23 04:02:24;;;;;;;9.90;3.20;;;;;;;;;;5033882;28;20035;-89
2023/08/23 04:04:50;;;;;;;5.13;2.65;;;;;;;;;;5016485;28;20053;-88
2023/08/23 04:07:15;;;;;;;4.15;2.90;;;;;;;;;;5033029;28;20087;-88
2023/08/23 04:09:41;;;;;;;5.28;3.00;;;;;;;;;;5032456;28;20026;-89
2023/08/23 04:12:06;;;;;;;6.32;3.40;;;;;;;;;;5016271;28;20061;-89
2023/08/23 04:14:32;;;;;;;5.38;3.45;;;;;;;;;;5032488;28;20473;-88
2023/08/23 04:16:59;;;;;;;5.03;3.30;;;;;;;;;;5032224;28;20080;-88
2023/08/23 04:19:25;;;;;;;4.88;2.88;;;;;;;;;;5015694;28;20057;-88
2023/08/23 04:21:51;;;;;;;4.82;3.30;;;;;;;;;;5033500;28;20053;-88
2023/08/23 04:24:16;;;;;;;4.13;3.03;;;;;;;;;;5015973;28;20029;-87
2023/08/23 04:26:43;;;;;;;5.03;2.90;;;;;;;;;;5032943;28;20068;-88
2023/08/23 04:29:08;;;;;;;3.72;2.05;;;;;;;;;;5016157;28;20057;-88
2023/08/23 04:31:34;;;;;;;4.95;2.65;;;;;;;;;;5032382;28;20048;-87
2023/08/23 04:34:08;;;;;;;4.30;2.35;;;;;;;;;;5032385;28;20120;-90
2023/08/23 04:36:34;;;;;;;6.25;2.80;;;;;;;;;;5033576;28;20064;-87
2023/08/23 04:38:59;;;;;;;7.68;3.20;;;;;;;;;;5016852;28;20021;-87
2023/08/23 04:41:25;;;;;;;5.47;2.80;;;;;;;;;;5017121;28;20033;-88
2023/08/23 04:43:51;;;;;;;5.25;2.92;;;;;;;;;;5032773;28;20040;-88
2023/08/23 04:46:16;;;;;;;4.20;2.53;;;;;;;;;;5033495;28;20515;-88
2023/08/23 04:48:42;;;;;;;3.83;2.33;;;;;;;;;;5016146;28;20148;-88
2023/08/23 04:51:11;;;;;;;3.55;2.53;;;;;;;;;;5016047;28;20450;-88
2023/08/23 04:53:37;;;;;;;3.20;2.20;;;;;;;;;;5016706;28;20036;-89
2023/08/23 04:56:03;;;;;;;3.92;2.17;;;;;;;;;;5033507;28;20377;-89
2023/08/23 04:58:32;;;;;;;4.05;2.60;;;;;;;;;;5015798;28;20033;-88
2023/08/23 05:00:59;;;;;;;3.00;2.13;;;;;;;;;;5032562;28;20510;-89
2023/08/23 05:03:25;;;;;;;3.85;2.72;;;;;;;;;;5032832;28;20025;-89
2023/08/23 05:05:52;;;;;;;3.47;2.40;;;;;;;;;;5032703;28;20072;-87
2023/08/23 05:08:17;;;;;;;3.85;2.72;;;;;;;;;;4999673;28;20029;-88
2023/08/23 05:10:43;;;;;;;6.05;2.60;;;;;;;;;;5015907;28;20087;-88
2023/08/23 05:13:09;;;;;;;7.57;2.80;;;;;;;;;;5015276;28;20044;-88
2023/08/23 05:15:34;;;;;;;3.53;1.98;;;;;;;;;;5015714;28;20037;-89
2023/08/23 05:18:00;;;;;;;4.40;2.40;;;;;;;;;;5031594;28;20033;-89
2023/08/23 05:20:25;;;;;;;4.72;1.80;;;;;;;;;;5031790;28;20037;-88
2023/08/23 05:22:50;;;;;;;2.58;1.83;;;;;;;;;;5016461;28;20062;-88
2023/08/23 05:25:16;;;;;;;3.40;2.17;;;;;;;;;;5032737;28;20061;-88
2023/08/23 05:27:42;;;;;;;3.55;2.15;;;;;;;;;;5032728;28;20037;-88
2023/08/23 05:30:08;;;;;;;4.63;2.22;;;;;;;;;;5032233;28;20041;-88
2023/08/23 05:32:34;;;;;;;4.22;2.25;;;;;;;;;;5033498;28;20096;-87
2023/08/23 05:34:59;;;;;;;5.07;2.30;;;;;;;;;;5033401;28;20091;-88
2023/08/23 05:37:25;;;;;;;3.08;2.20;;;;;;;;;;5017459;28;20023;-90
2023/08/23 05:39:52;;;;;;;3.22;2.35;;;;;;;;;;5019550;28;20129;-87
2023/08/23 05:42:17;;;;;;;5.03;2.75;;;;;;;;;;5037660;28;20545;-88
2023/08/23 05:44:44;;;;;;;4.95;2.30;;;;;;;;;;5020282;28;20638;-88
2023/08/23 05:47:09;;;;;;;4.55;2.60;;;;;;;;;;5036757;28;20450;-89
2023/08/23 05:49:35;;;;;;;2.90;1.83;;;;;;;;;;5036793;28;20040;-88
2023/08/23 05:52:00;;;;;;;5.47;2.30;;;;;;;;;;5035453;28;20522;-88
2023/08/23 05:54:26;;;;;;;4.45;2.28;;;;;;;;;;5019116;28;20117;-89
2023/08/23 05:56:51;;;;;;;4.60;2.08;;;;;;;;;;5019048;28;20042;-88
2023/08/23 05:59:17;;;;;;;4.90;2.67;;;;;;;;;;5036266;28;20044;-88
2023/08/23 06:01:42;;;;;;;5.07;2.40;;;;;;;;;;5036185;28;20400;-88
2023/08/23 06:04:08;;;;;;;6.00;3.25;;;;;;;;;;5035484;28;20124;-88
2023/08/23 06:06:33;;;;;;;2.92;2.03;;;;;;;;;;5035656;28;20479;-88
2023/08/23 06:09:02;;;;;;;8.00;2.67;;;;;;;;;;5018717;28;20029;-88
2023/08/23 06:11:27;;;;;;;3.90;2.10;;;;;;;;;;5034644;28;20045;-88
2023/08/23 06:13:54;;;;;;;6.85;2.75;;;;;;;;;;5018347;28;20025;-88
2023/08/23 06:16:20;;;;;;;5.80;2.30;;;;;;;;;;5035934;28;20083;-88
2023/08/23 06:18:45;;;;;;;4.50;2.28;;;;;;;;;;5035119;28;20026;-88
2023/08/23 06:21:11;;;;;;;4.15;2.30;;;;;;;;;;5036921;28;20397;-88
2023/08/23 06:23:41;;;;;;;3.72;2.38;;;;;;;;;;5036444;28;20029;-88
2023/08/23 06:26:07;;;;;;;6.00;2.03;;;;;;;;;;5035214;28;20057;-88
2023/08/23 06:28:32;;;;;;;4.57;2.00;;;;;;;;;;5003042;28;20033;-88
2023/08/23 06:30:58;;;;;;;4.03;1.85;;;;;;;;;;5035013;28;20044;-88
2023/08/23 06:33:23;;;;;;;5.50;2.03;;;;;;;;;;5034836;28;20036;-88
2023/08/23 06:35:49;;;;;;;4.45;1.67;;;;;;;;;;5035212;28;20069;-89
2023/08/23 06:38:15;;;;;;;5.10;2.17;;;;;;;;;;5034630;28;20061;-88
2023/08/23 06:40:44;;;;;;;6.45;2.28;;;;;;;;;;5018967;28;20040;-88
2023/08/23 06:43:19;;;;;;;10.35;2.40;;;;;;;;;;5036043;28;20044;-88
2023/08/23 06:45:44;;;;;;;4.45;1.90;;;;;;;;;;5034803;28;20044;-88
2023/08/23 06:48:10;;;;;;;5.68;2.30;;;;;;;;;;5035666;28;20021;-88
2023/08/23 06:50:35;;;;;;;4.82;2.33;;;;;;;;;;5034738;28;20034;-88
2023/08/23 06:53:01;;;;;;;5.25;1.90;;;;;;;;;;5036504;28;20546;-88
2023/08/23 06:55:27;;;;;;;5.07;2.03;;;;;;;;;;5034549;28;20516;-87
2023/08/23 06:57:52;;;;;;;4.82;2.00;;;;;;;;;;5018879;28;20025;-89
2023/08/23 07:00:18;;;;;;;6.85;2.70;;;;;;;;;;5034458;28;20470;-87
2023/08/23 07:02:43;;;;;;;3.58;2.30;;;;;;;;;;5017462;28;20024;-90
2023/08/23 07:05:09;;;;;;;3.58;1.90;;;;;;;;;;5035101;28;20534;-88
2023/08/23 07:07:34;;;;;;;2.95;1.70;;;;;;;;;;5035793;28;20464;-88
2023/08/23 07:10:00;;;;;;;4.63;2.00;;;;;;;;;;5033574;28;20404;-86
2023/08/23 07:12:26;;;;;;;2.85;1.50;;;;;;;;;;5035074;28;20034;-89
2023/08/23 07:14:51;;;;;;;4.00;2.00;;;;;;;;;;5035840;28;20045;-88
2023/08/23 07:17:17;;;;;;;7.15;2.08;;;;;;;;;;5034207;28;20164;-88
2023/08/23 07:19:42;;;;;;;4.20;1.45;;;;;;;;;;5018421;28;20037;-89
2023/08/23 07:22:08;;;;;;;3.88;1.70;;;;;;;;;;5034941;28;20048;-89
2023/08/23 07:24:33;;;;;;;4.85;1.92;;;;;;;;;;5035476;28;20040;-89
2023/08/23 07:26:59;;;;;;;2.85;1.55;;;;;;;;;;5036512;28;20034;-88
2023/08/23 07:29:24;;;;;;;1.88;1.30;;;;;;;;;;5034900;28;20065;-88
2023/08/23 07:31:49;;;;;;;2.85;1.42;;;;;;;;;;5036210;28;20029;-88
2023/08/23 07:34:16;;;;;;;3.85;1.58;;;;;;;;;;5034455;28;20037;-88
2023/08/23 07:36:41;;;;;;;5.60;1.50;;;;;;;;;;5035553;28;20033;-88
2023/08/23 07:39:07;;;;;;;1.73;1.02;;;;;;;;;;5035657;28;20372;-89
2023/08/23 07:41:33;;;;;;;4.78;1.90;;;;;;;;;;5018039;28;20484;-88
2023/08/23 07:43:58;;;;;;;6.07;1.65;;;;;;;;;;5034608;28;20044;-87
2023/08/23 07:46:24;;;;;;;3.28;1.30;;;;;;;;;;5035894;28;20021;-90
2023/08/23 07:48:49;;;;;;;3.65;1.40;;;;;;;;;;5017673;28;20049;-89
2023/08/23 07:51:15;;;;;;;3.95;1.60;;;;;;;;;;5035064;28;20480;-90
2023/08/23 07:53:42;;;;;;;5.32;1.70;;;;;;;;;;5034502;28;20508;-91
2023/08/23 07:56:07;;;;;;;7.40;1.63;;;;;;;;;;5034721;28;20083;-88
2023/08/23 07:58:33;;;;;;;2.25;1.40;;;;;;;;;;5035408;28;20029;-93
2023/08/23 08:01:01;;;;;;;6.20;1.50;;;;;;;;;;5033463;28;20076;-91
2023/08/23 08:03:28;;;;;;;4.47;1.58;;;;;;;;;;5018177;28;20444;-90
2023/08/23 08:05:54;;;;;;;5.93;1.65;;;;;;;;;;5034263;28;20033;-91
2023/08/23 08:08:19;;;;;;;3.38;1.42;;;;;;;;;;5033852;28;20033;-89
2023/08/23 08:10:45;;;;;;;5.53;1.60;;;;;;;;;;5035127;28;20037;-88
2023/08/23 08:13:10;;;;;;;4.43;1.58;;;;;;;;;;5033688;28;20109;-88
2023/08/23 08:15:36;;;;;;;3.40;1.48;;;;;;;;;;5034089;28;20396;-90
2023/08/23 08:18:02;;;;;;;2.17;1.17;;;;;;;;;;5034917;28;20030;-87
2023/08/23 08:20:27;;;;;;;4.18;1.40;;;;;;;;;;5035046;28;20064;-91
2023/08/23 08:22:53;;;;;;;2.95;1.08;;;;;;;;;;5033949;28;20057;-90
2023/08/23 08:25:19;;;;;;;3.90;1.45;;;;;;;;;;5035456;28;20033;-89
2023/08/23 08:27:44;;;;;;;3.92;1.60;;;;;;;;;;5033268;28;20033;-90
2023/08/23 08:30:10;;;;;;;2.58;1.40;;;;;;;;;;5033265;28;20464;-89
2023/08/23 08:32:35;;;;;;;4.45;1.40;;;;;;;;;;5017117;28;20052;-89
2023/08/23 08:35:01;;;;;;;2.83;1.05;;;;;;;;;;5034977;28;20049;-89
2023/08/23 08:37:26;;;;;;;5.22;1.73;;;;;;;;;;5033496;28;20084;-90
2023/08/23 08:39:52;;;;;;;4.05;1.40;;;;;;;;;;5033326;28;20402;-89
2023/08/23 08:42:17;;;;;;;3.97;1.30;;;;;;;;;;5033517;28;20032;-90
2023/08/23 08:44:44;;;;;;;6.68;1.67;;;;;;;;;;5035482;28;20045;-89
2023/08/23 08:47:09;;;;;;;2.90;1.20;;;;;;;;;;5035701;28;20120;-91
2023/08/23 08:49:35;;;;;;;2.67;1.30;;;;;;;;;;5034000;28;20057;-90
2023/08/23 08:52:03;;;;;;;5.55;1.55;;;;;;;;;;5035077;28;20018;-89
2023/08/23 08:54:28;;;;;;;2.10;1.10;;;;;;;;;;5033928;28;20464;-91
2023/08/23 08:56:54;;;;;;;3.47;1.30;;;;;;;;;;5033719;28;20029;-89
2023/08/23 08:59:20;;;;;;;2.92;1.35;;;;;;;;;;5032750;28;20124;-91
2023/08/23 09:01:45;;;;;;;3.15;1.27;;;;;;;;;;5017579;28;20491;-91
2023/08/23 09:04:11;;;;;;;3.65;1.42;;;;;;;;;;5017474;28;20416;-90
2023/08/23 09:06:40;;;;;;;5.90;1.42;;;;;;;;;;5017268;28;20028;-89
2023/08/23 09:09:06;;;;;;;4.28;1.27;;;;;;;;;;5001530;28;20041;-90
2023/08/23 09:11:32;;;;;;;4.35;1.30;;;;;;;;;;5034401;28;20029;-90
2023/08/23 09:13:57;;;;;;;5.43;1.65;;;;;;;;;;5034133;28;20041;-89
2023/08/23 09:16:23;;;;;;;4.35;1.48;;;;;;;;;;5033907;28;20404;-91
2023/08/23 09:18:49;;;;;;;2.35;1.02;;;;;;;;;;5035502;28;20064;-89
2023/08/23 09:21:14;;;;;;;2.40;0.98;;;;;;;;;;5016856;28;20057;-89
2023/08/23 09:23:40;;;;;;;1.58;0.90;;;;;;;;;;5034646;28;20029;-89
2023/08/23 09:26:08;;;;;;;2.85;0.90;;;;;;;;;;5033241;28;20408;-90
2023/08/23 09:28:33;;;;;;;3.47;1.00;;;;;;;;;;5016311;28;20362;-89
2023/08/23 09:30:59;;;;;;;4.25;0.90;;;;;;;;;;5033262;28;20037;-90
2023/08/23 09:33:25;;;;;;;2.08;0.90;;;;;;;;;;5033084;28;20052;-90
2023/08/23 09:35:51;;;;;;;3.35;1.30;;;;;;;;;;5033346;28;20199;-90
2023/08/23 09:38:19;;;;;;;3.13;1.20;;;;;;;;;;5033475;28;20049;-90
2023/08/23 09:40:46;;;;;;;3.67;1.17;;;;;;;;;;5034211;28;20081;-90
2023/08/23 09:43:11;;;;;;;6.50;0.90;;;;;;;;;;5000375;28;20041;-90
2023/08/23 09:45:37;;;;;;;3.22;1.50;;;;;;;;;;5000057;28;20022;-88
2023/08/23 09:48:02;;;;;;;2.45;1.02;;;;;;;;;;4999710;28;20040;-90
2023/08/23 09:50:28;;;;;;;2.72;0.82;;;;;;;;;;5033113;28;20033;-91
2023/08/23 09:52:57;;;;;;;3.10;1.20;;;;;;;;;;5033771;28;20432;-90
2023/08/23 09:55:22;;;;;;;3.33;1.20;;;;;;;;;;5032824;28;20511;-91
2023/08/23 09:57:48;;;;;;;2.33;0.85;;;;;;;;;;5035451;28;20032;-90
2023/08/23 10:00:14;;;;;;;3.95;1.08;;;;;;;;;;5035056;28;20055;-90
2023/08/23 10:02:39;;;;;;;1.35;0.77;;;;;;;;;;5017215;28;20041;-89
2023/08/23 10:05:06;;;;;;;3.08;1.10;;;;;;;;;;5017457;28;20032;-89
2023/08/23 10:07:32;;;;;;;2.45;0.90;;;;;;;;;;5033467;28;20048;-90
2023/08/23 10:09:57;;;;;;;3.25;1.00;;;;;;;;;;5033694;28;20471;-90
2023/08/23 10:12:23;;;;;;;2.97;1.08;;;;;;;;;;5032770;28;20040;-89
2023/08/23 10:14:49;;;;;;;1.30;0.82;;;;;;;;;;5033157;28;20504;-90
2023/08/23 10:17:15;;;;;;;2.95;1.20;;;;;;;;;;5000839;28;20041;-89
2023/08/23 10:19:40;;;;;;;4.47;1.13;;;;;;;;;;5033293;28;20037;-91
2023/08/23 10:22:05;;;;;;;3.58;1.00;;;;;;;;;;5033355;28;20128;-90
2023/08/23 10:24:31;;;;;;;2.63;0.98;;;;;;;;;;5037138;28;20053;-90
2023/08/23 10:26:56;;;;;;;3.15;0.90;;;;;;;;;;5037364;28;20037;-89
2023/08/23 10:29:28;;;;;;;2.35;1.00;;;;;;;;;;5036547;28;20029;-91
2023/08/23 10:31:54;;;;;;;5.90;1.02;;;;;;;;;;5037140;28;20033;-90
2023/08/23 10:34:23;;;;;;;2.25;0.90;;;;;;;;;;5036435;28;20030;-90
2023/08/23 10:36:48;;;;;;;1.70;0.82;;;;;;;;;;5038565;28;20045;-90
2023/08/23 10:39:14;;;;;;;2.28;1.10;;;;;;;;;;5021426;28;20127;-90
2023/08/23 10:41:39;;;;;;;2.15;0.90;;;;;;;;;;5020665;28;20063;-90
2023/08/23 10:44:13;;;;;;;1.33;0.80;;;;;;;;;;5038856;28;20022;-90
2023/08/23 10:46:42;;;;;;;2.40;0.90;;;;;;;;;;5003900;28;20084;-91
2023/08/23 10:49:08;;;;;;;1.42;0.68;;;;;;;;;;5038622;28;20059;-91
2023/08/23 10:51:33;;;;;;;3.80;1.13;;;;;;;;;;5037967;28;20063;-90
2023/08/23 10:53:59;;;;;;;2.25;0.93;;;;;;;;;;5035560;28;20075;-90
2023/08/23 10:56:25;;;;;;;2.60;1.20;;;;;;;;;;5036648;28;20041;-91
2023/08/23 10:58:50;;;;;;;2.95;0.90;;;;;;;;;;5036991;28;20029;-90
2023/08/23 11:01:16;;;;;;;2.72;1.10;;;;;;;;;;5036631;28;20029;-90
2023/08/23 11:03:42;;;;;;;3.25;0.90;;;;;;;;;;5053181;28;20029;-90
2023/08/23 11:06:07;;;;;;;2.05;0.90;;;;;;;;;;5020774;28;20133;-90
2023/08/23 11:08:33;;;;;;;1.13;0.55;;;;;;;;;;5037047;28;20033;-90
2023/08/23 11:10:58;;;;;;;2.83;0.95;;;;;;;;;;5036247;28;20037;-90
2023/08/23 11:13:24;;;;;;;2.13;0.95;;;;;;;;;;5037612;28;20034;-91
2023/08/23 11:15:50;;;;;;;2.20;1.10;;;;;;;;;;5020232;28;20061;-90
2023/08/23 11:18:15;;;;;;;4.43;1.40;;;;;;;;;;5036180;28;20033;-90
2023/08/23 11:20:41;;;;;;;3.50;1.67;;;;;;;;;;5005068;28;20507;-91
2023/08/23 11:23:07;;;;;;;3.95;1.08;;;;;;;;;;5037441;28;20404;-93
2023/08/23 11:25:32;;;;;;;3.22;1.02;;;;;;;;;;5021321;28;20033;-92
2023/08/23 11:27:58;;;;;;;1.85;0.80;;;;;;;;;;5037990;28;20033;-91
2023/08/23 11:30:23;;;;;;;1.02;0.70;;;;;;;;;;5037235;28;20111;-92
2023/08/23 11:32:49;;;;;;;2.05;0.90;;;;;;;;;;5036966;28;20033;-91
2023/08/23 11:35:17;;;;;;;2.83;0.82;;;;;;;;;;5037481;28;20041;-91
2023/08/23 11:37:43;;;;;;;4.60;1.10;;;;;;;;;;5036586;28;20084;-90
2023/08/23 11:40:10;;;;;;;4.03;1.30;;;;;;;;;;5035957;28;20041;-91
2023/08/23 11:42:36;;;;;;;7.05;1.55;;;;;;;;;;5020049;28;20499;-91
2023/08/23 11:45:03;;;;;;;4.55;1.70;;;;;;;;;;5035872;28;20025;-90
2023/08/23 11:47:29;;;;;;;3.95;1.30;;;;;;;;;;5018757;28;20025;-90
2023/08/23 11:49:55;;;;;;;3.10;1.20;;;;;;;;;;5035166;28;20059;-90
2023/08/23 11:52:21;;;;;;;1.73;0.98;;;;;;;;;;5018732;28;20120;-89
2023/08/23 11:54:46;;;;;;;2.17;0.98;;;;;;;;;;5018415;28;20049;-90
2023/08/23 11:57:15;;;;;;;2.13;0.90;;;;;;;;;;5036574;28;20484;-90
2023/08/23 11:59:41;;;;;;;2.50;1.08;;;;;;;;;;5018789;28;20040;-90
2023/08/23 12:02:07;;;;;;;2.78;1.10;;;;;;;;;;5035781;28;20109;-90
2023/08/23 12:04:32;;;;;;;3.40;1.27;;;;;;;;;;5035737;28;20041;-90
2023/08/23 12:06:58;;;;;;;2.15;0.90;;;;;;;;;;5005319;28;20025;-91
2023/08/23 12:09:25;;;;;;;2.47;1.00;;;;;;;;;;5038867;28;20026;-90
2023/08/23 12:11:52;;;;;;;4.50;0.90;;;;;;;;;;5038143;28;20635;-90
2023/08/23 12:14:18;;;;;;;3.85;1.17;;;;;;;;;;5038409;28;20094;-90
2023/08/23 12:16:43;;;;;;;2.67;1.25;;;;;;;;;;5038159;28;20072;-90
2023/08/23 12:19:09;;;;;;;3.20;1.40;;;;;;;;;;5039109;28;20037;-91
2023/08/23 12:21:34;;;;;;;4.00;1.20;;;;;;;;;;5021102;28;20045;-91
2023/08/23 12:24:04;;;;;;;2.35;1.08;;;;;;;;;;5041410;28;20033;-91
2023/08/23 12:26:30;;;;;;;2.25;1.20;;;;;;;;;;5039081;28;20029;-90
2023/08/23 12:28:56;;;;;;;5.13;1.20;;;;;;;;;;5035064;28;20091;-90
2023/08/23 12:31:22;;;;;;;2.72;1.25;;;;;;;;;;5017914;28;20115;-91
2023/08/23 12:33:47;;;;;;;3.65;1.10;;;;;;;;;;5001906;28;20488;-91
2023/08/23 12:36:13;;;;;;;4.45;1.35;;;;;;;;;;5002851;28;20029;-92
2023/08/23 12:38:38;;;;;;;3.13;1.10;;;;;;;;;;5018331;28;20036;-92
2023/08/23 12:41:04;;;;;;;3.35;1.00;;;;;;;;;;5001368;28;20025;-91
2023/08/23 12:43:32;;;;;;;6.78;1.27;;;;;;;;;;5000969;28;20037;-91
2023/08/23 12:45:57;;;;;;;5.20;1.20;;;;;;;;;;5017056;28;20394;-92
2023/08/23 12:48:27;;;;;;;2.30;1.20;;;;;;;;;;5016733;28;20489;-91
2023/08/23 12:50:52;;;;;;;3.10;1.40;;;;;;;;;;5017149;28;20026;-92
2023/08/23 12:53:18;;;;;;;5.18;1.58;;;;;;;;;;5035486;28;20037;-92
2023/08/23 12:55:43;;;;;;;5.85;1.30;;;;;;;;;;5034362;28;20548;-91
2023/08/23 12:58:09;;;;;;;3.40;1.42;;;;;;;;;;5017399;28;20404;-91
2023/08/23 13:00:34;;;;;;;3.65;1.20;;;;;;;;;;5017758;28;20025;-91
2023/08/23 13:03:00;;;;;;;4.65;1.50;;;;;;;;;;5035281;28;20033;-91
2023/08/23 13:05:26;;;;;;;3.80;1.42;;;;;;;;;;5035548;28;20086;-91
2023/08/23 13:07:52;;;;;;;3.75;1.20;;;;;;;;;;5034188;28;20175;-91
2023/08/23 13:10:17;;;;;;;2.13;0.90;;;;;;;;;;5034667;28;20053;-92
2023/08/23 13:12:42;;;;;;;3.92;1.30;;;;;;;;;;5034693;28;20538;-92
2023/08/23 13:15:08;;;;;;;2.28;0.95;;;;;;;;;;5018345;28;20052;-91
2023/08/23 13:17:34;;;;;;;2.83;1.00;;;;;;;;;;5035948;28;20036;-91
2023/08/23 13:19:59;;;;;;;2.90;1.23;;;;;;;;;;5035742;28;20025;-91
2023/08/23 13:22:26;;;;;;;4.38;1.38;;;;;;;;;;5034188;28;20144;-91
2023/08/23 13:24:51;;;;;;;3.40;1.05;;;;;;;;;;5035346;28;20041;-91
2023/08/23 13:27:17;;;;;;;2.70;1.17;;;;;;;;;;5002018;28;20035;-91
2023/08/23 13:29:44;;;;;;;4.15;1.20;;;;;;;;;;5034877;28;20029;-91
2023/08/23 13:32:10;;;;;;;3.88;1.33;;;;;;;;;;5034701;28;20072;-91
2023/08/23 13:34:35;;;;;;;1.85;1.13;;;;;;;;;;5035357;28;20029;-91
2023/08/23 13:37:01;;;;;;;3.38;1.50;;;;;;;;;;5033782;28;20385;-90
2023/08/23 13:39:26;;;;;;;2.38;1.40;;;;;;;;;;5016668;28;20061;-88
2023/08/23 13:41:52;;;;;;;3.92;0.98;;;;;;;;;;5032674;28;20029;-91
2023/08/23 13:44:17;;;;;;;3.05;1.30;;;;;;;;;;5034416;28;20032;-90
2023/08/23 13:46:43;;;;;;;1.23;0.80;;;;;;;;;;5016826;28;20040;-90
2023/08/23 13:49:08;;;;;;;4.47;1.35;;;;;;;;;;5033872;28;20116;-90
2023/08/23 13:51:34;;;;;;;3.15;1.00;;;;;;;;;;5016626;28;20128;-90
2023/08/23 13:53:59;;;;;;;4.28;1.60;;;;;;;;;;5032400;28;20041;-91
2023/08/23 13:56:25;;;;;;;2.92;1.13;;;;;;;;;;5032617;28;20037;-90
2023/08/23 13:58:50;;;;;;;2.40;1.20;;;;;;;;;;5017851;28;20393;-90
2023/08/23 14:01:16;;;;;;;2.28;1.20;;;;;;;;;;5036772;28;20033;-91
2023/08/23 14:03:41;;;;;;;3.05;1.40;;;;;;;;;;5036139;28;20022;-91
2023/08/23 14:06:08;;;;;;;5.25;1.55;;;;;;;;;;5037968;28;20152;-91
2023/08/23 14:08:33;;;;;;;1.95;1.08;;;;;;;;;;5036222;28;20036;-90
2023/08/23 14:10:59;;;;;;;4.75;1.58;;;;;;;;;;5036318;28;20041;-90
2023/08/23 14:13:24;;;;;;;6.03;2.15;;;;;;;;;;5037031;28;20032;-90
2023/08/23 14:15:50;;;;;;;4.22;1.25;;;;;;;;;;5037708;28;20493;-90
2023/08/23 14:18:15;;;;;;;4.28;1.58;;;;;;;;;;5037043;28;20036;-90
2023/08/23 14:20:41;;;;;;;3.33;1.45;;;;;;;;;;5036238;28;20060;-90
2023/08/23 14:23:06;;;;;;;1.67;1.08;;;;;;;;;;5036513;28;20040;-90
2023/08/23 14:25:32;;;;;;;4.75;1.52;;;;;;;;;;5034991;28;20116;-90
2023/08/23 14:27:57;;;;;;;5.65;2.03;;;;;;;;;;5037586;28;20048;-89
2023/08/23 14:30:23;;;;;;;3.85;2.60;;;;;;;;;;5037481;28;20041;-90
2023/08/23 14:32:49;;;;;;;4.60;3.40;;;;;;;;;;5018695;28;20038;-89
2023/08/23 14:35:15;;;;;;;3.90;3.15;;;;;;;;;;5018474;28;20077;-89